createdAt,value
2019-01-29T00:01:36.965Z,0.70
2019-01-29T00:04:06.837Z,0.60
2019-01-29T00:06:36.571Z,0.70
2019-01-29T00:09:08.016Z,0.70
2019-01-29T00:11:37.651Z,0.60
2019-01-29T00:14:07.471Z,0.60
2019-01-29T00:16:37.224Z,0.70
2019-01-29T00:19:07.009Z,0.70
2019-01-29T00:21:36.707Z,0.60
2019-01-29T00:24:05.605Z,0.60
2019-01-29T00:26:35.216Z,0.60
2019-01-29T00:29:05.042Z,0.60
2019-01-29T00:31:34.716Z,0.60
2019-01-29T00:34:04.694Z,0.60
2019-01-29T00:36:34.444Z,0.60
2019-01-29T00:39:06.899Z,0.70
2019-01-29T00:41:36.783Z,0.70
2019-01-29T00:44:06.542Z,0.70
2019-01-29T00:46:36.306Z,0.70
2019-01-29T00:49:07.000Z,0.60
2019-01-29T00:51:36.712Z,0.60
2019-01-29T00:54:06.744Z,0.50
2019-01-29T00:56:36.395Z,0.50
2019-01-29T00:59:06.242Z,0.60
2019-01-29T01:01:35.903Z,0.60
2019-01-29T01:04:05.659Z,0.60
2019-01-29T01:06:35.399Z,0.60
2019-01-29T01:09:07.153Z,0.60
2019-01-29T01:11:36.867Z,0.60
2019-01-29T01:14:06.749Z,0.60
2019-01-29T01:16:36.620Z,0.50
2019-01-29T01:19:06.291Z,0.50
2019-01-29T01:21:36.041Z,0.40
2019-01-29T01:24:05.800Z,0.40
2019-01-29T01:26:35.533Z,0.40
2019-01-29T01:29:05.254Z,0.40
2019-01-29T01:31:35.002Z,0.40
2019-01-29T01:34:04.729Z,0.40
2019-01-29T01:36:34.553Z,0.50
2019-01-29T01:39:07.535Z,0.40
2019-01-29T01:41:37.143Z,0.50
2019-01-29T01:44:06.805Z,0.50
2019-01-29T01:46:36.486Z,0.40
2019-01-29T01:49:06.202Z,0.50
2019-01-29T01:51:35.973Z,0.50
2019-01-29T01:54:05.795Z,0.50
2019-01-29T01:56:36.378Z,0.50
2019-01-29T01:59:06.126Z,0.50
2019-01-29T02:01:35.723Z,0.50
2019-01-29T02:04:05.444Z,0.50
2019-01-29T02:06:35.181Z,0.50
2019-01-29T02:09:07.378Z,0.60
2019-01-29T02:11:37.206Z,0.50
2019-01-29T02:14:07.092Z,0.60
2019-01-29T02:16:36.841Z,0.60
2019-01-29T02:19:06.634Z,0.60
2019-01-29T02:21:37.375Z,0.60
2019-01-29T02:24:07.037Z,0.60
2019-01-29T02:26:36.723Z,0.60
2019-01-29T02:29:06.414Z,0.60
2019-01-29T02:31:36.066Z,0.60
2019-01-29T02:34:05.848Z,0.60
2019-01-29T02:36:35.491Z,0.60
2019-01-29T02:39:07.620Z,0.60
2019-01-29T02:41:37.395Z,0.60
2019-01-29T02:44:07.165Z,0.60
2019-01-29T02:46:36.918Z,0.50
2019-01-29T02:49:06.587Z,0.50
2019-01-29T02:51:36.422Z,0.50
2019-01-29T02:54:06.148Z,0.50
2019-01-29T02:56:35.861Z,0.60
2019-01-29T02:59:06.351Z,0.60
2019-01-29T03:01:36.067Z,0.50
2019-01-29T03:04:05.741Z,0.60
2019-01-29T03:06:35.440Z,0.60
2019-01-29T03:09:07.731Z,0.60
2019-01-29T03:11:37.384Z,0.50
2019-01-29T03:14:07.401Z,0.50
2019-01-29T03:16:37.062Z,0.60
2019-01-29T03:19:06.950Z,0.50
2019-01-29T03:21:36.702Z,0.60
2019-01-29T03:24:06.431Z,0.50
2019-01-29T03:26:36.109Z,0.50
2019-01-29T03:29:05.842Z,0.50
2019-01-29T03:31:35.654Z,0.50
2019-01-29T03:34:05.478Z,0.50
2019-01-29T03:36:35.364Z,0.50
2019-01-29T03:39:07.300Z,0.50
2019-01-29T03:41:37.003Z,0.50
2019-01-29T03:44:08.649Z,0.50
2019-01-29T03:46:38.385Z,0.50
2019-01-29T03:49:08.104Z,0.50
2019-01-29T03:51:37.750Z,0.40
2019-01-29T03:54:07.474Z,0.40
2019-01-29T03:56:37.047Z,0.30
2019-01-29T03:59:06.799Z,0.30
2019-01-29T04:01:36.440Z,0.20
2019-01-29T04:04:06.430Z,0.30
2019-01-29T04:06:36.111Z,0.30
2019-01-29T04:09:08.030Z,0.30
2019-01-29T04:11:37.814Z,0.20
2019-01-29T04:14:07.540Z,0.30
2019-01-29T04:16:37.281Z,0.30
2019-01-29T04:19:06.929Z,0.20
2019-01-29T04:21:36.605Z,0.20
2019-01-29T04:24:06.299Z,0.10
2019-01-29T04:26:35.981Z,0.00
2019-01-29T04:29:05.694Z,-0.10
2019-01-29T04:31:35.405Z,0.00
2019-01-29T04:34:05.115Z,-0.10
2019-01-29T04:36:34.875Z,-0.20
2019-01-29T04:39:07.012Z,-0.20
2019-01-29T04:41:36.698Z,-0.30
2019-01-29T04:44:06.492Z,-0.40
2019-01-29T04:46:36.154Z,-0.60
2019-01-29T04:49:05.862Z,-0.60
2019-01-29T04:51:35.540Z,-0.80
2019-01-29T04:54:05.322Z,-0.90
2019-01-29T04:56:34.988Z,-0.90
2019-01-29T04:59:04.707Z,-0.90
2019-01-29T05:01:34.431Z,-0.90
2019-01-29T05:04:04.448Z,-1.00
2019-01-29T05:06:34.192Z,-0.90
2019-01-29T05:09:07.150Z,-0.90
2019-01-29T05:11:37.004Z,-0.90
2019-01-29T05:14:06.831Z,-0.80
2019-01-29T05:16:36.533Z,-0.70
2019-01-29T05:19:06.301Z,-0.60
2019-01-29T05:21:35.901Z,-0.50
2019-01-29T05:24:06.855Z,-0.50
2019-01-29T05:26:36.913Z,-0.40
2019-01-29T05:29:06.589Z,-0.40
2019-01-29T05:31:36.318Z,-0.40
2019-01-29T05:34:05.980Z,-0.40
2019-01-29T05:36:35.727Z,-0.40
2019-01-29T05:39:08.059Z,-0.40
2019-01-29T05:41:37.747Z,-0.40
2019-01-29T05:44:07.487Z,-0.40
2019-01-29T05:46:37.236Z,-0.30
2019-01-29T05:49:06.991Z,-0.30
2019-01-29T05:51:36.739Z,-0.30
2019-01-29T05:54:15.960Z,-0.30
2019-01-29T05:56:37.970Z,-0.30
2019-01-29T05:59:07.615Z,-0.30
2019-01-29T06:01:37.209Z,-0.20
2019-01-29T06:04:06.909Z,-0.10
2019-01-29T06:06:36.635Z,-0.10
2019-01-29T06:09:07.988Z,0.00
2019-01-29T06:11:37.734Z,0.00
2019-01-29T06:14:08.104Z,0.00
2019-01-29T06:16:38.751Z,0.10
2019-01-29T06:19:08.526Z,0.20
2019-01-29T06:21:38.307Z,0.10
2019-01-29T06:24:08.046Z,0.10
2019-01-29T06:26:38.002Z,0.20
2019-01-29T06:29:07.642Z,0.20
2019-01-29T06:31:37.346Z,0.20
2019-01-29T06:34:07.123Z,0.30
2019-01-29T06:36:36.708Z,0.30
2019-01-29T06:39:07.723Z,0.30
2019-01-29T06:41:37.417Z,0.30
2019-01-29T06:44:06.987Z,0.30
2019-01-29T06:46:36.793Z,0.40
2019-01-29T06:49:07.528Z,0.30
2019-01-29T06:51:37.268Z,0.40
2019-01-29T06:54:06.991Z,0.30
2019-01-29T06:56:38.205Z,0.30
2019-01-29T06:59:07.843Z,0.30
2019-01-29T07:01:37.620Z,0.30
2019-01-29T07:04:07.416Z,0.40
2019-01-29T07:06:37.644Z,0.40
2019-01-29T07:09:08.754Z,0.40
2019-01-29T07:11:38.503Z,0.40
2019-01-29T07:14:08.247Z,0.40
2019-01-29T07:16:39.787Z,0.40
2019-01-29T07:19:11.087Z,0.40
2019-01-29T07:21:42.461Z,0.40
2019-01-29T07:24:12.443Z,0.50
2019-01-29T07:26:42.261Z,0.40
2019-01-29T07:29:12.190Z,0.50
2019-01-29T07:31:41.908Z,0.50
2019-01-29T07:34:12.743Z,0.50
2019-01-29T07:36:42.397Z,0.60
2019-01-29T07:39:12.344Z,0.60
2019-01-29T07:41:42.173Z,0.60
2019-01-29T07:44:12.170Z,0.70
2019-01-29T07:46:41.825Z,0.70
2019-01-29T07:49:11.764Z,0.70
2019-01-29T07:51:41.656Z,0.70
2019-01-29T07:54:11.362Z,0.80
2019-01-29T07:56:41.057Z,0.80
2019-01-29T07:59:10.935Z,0.90
2019-01-29T08:01:40.865Z,0.90
2019-01-29T08:04:11.617Z,1.00
2019-01-29T08:06:41.486Z,1.10
2019-01-29T08:09:11.676Z,1.10
2019-01-29T08:11:41.594Z,1.20
2019-01-29T08:14:11.447Z,1.20
2019-01-29T08:16:41.119Z,1.30
2019-01-29T08:19:10.955Z,1.30
2019-01-29T08:21:40.697Z,1.30
2019-01-29T08:24:10.512Z,1.50
2019-01-29T08:26:40.369Z,1.60
2019-01-29T08:29:10.082Z,1.60
2019-01-29T08:31:39.890Z,1.70
2019-01-29T08:34:09.530Z,1.70
2019-01-29T08:36:39.463Z,1.60
2019-01-29T08:39:09.697Z,1.60
2019-01-29T08:41:40.935Z,1.60
2019-01-29T08:44:10.867Z,1.70
2019-01-29T08:46:40.600Z,1.60
2019-01-29T08:49:10.323Z,1.50
2019-01-29T08:51:40.226Z,1.50
2019-01-29T08:54:09.882Z,1.50
2019-01-29T08:56:39.541Z,1.50
2019-01-29T08:59:09.263Z,1.60
2019-01-29T09:01:40.868Z,1.70
2019-01-29T09:04:10.655Z,1.80
2019-01-29T09:06:40.662Z,1.80
2019-01-29T09:09:10.384Z,1.90
2019-01-29T09:11:40.212Z,1.90
2019-01-29T09:14:09.909Z,2.00
2019-01-29T09:16:39.981Z,2.20
2019-01-29T09:19:09.745Z,2.20
2019-01-29T09:21:39.500Z,2.40
2019-01-29T09:24:09.331Z,2.50
2019-01-29T09:26:39.423Z,2.40
2019-01-29T09:29:17.491Z,2.20
2019-01-29T09:31:40.822Z,2.40
2019-01-29T09:34:11.576Z,2.40
2019-01-29T09:36:41.325Z,2.40
2019-01-29T09:39:11.314Z,2.50
2019-01-29T09:41:41.118Z,2.50
2019-01-29T09:44:10.813Z,2.60
2019-01-29T09:46:40.635Z,2.50
2019-01-29T09:49:11.322Z,2.40
2019-01-29T09:51:41.208Z,2.70
2019-01-29T09:54:11.240Z,2.80
2019-01-29T09:56:41.838Z,2.80
2019-01-29T09:59:11.526Z,2.90
2019-01-29T10:01:41.519Z,3.00
2019-01-29T10:04:11.406Z,3.10
2019-01-29T10:06:41.064Z,3.00
2019-01-29T10:09:10.836Z,3.10
2019-01-29T10:11:40.628Z,3.10
2019-01-29T10:14:10.378Z,3.00
2019-01-29T10:16:40.184Z,3.10
2019-01-29T10:19:10.030Z,3.00
2019-01-29T10:21:39.899Z,3.10
2019-01-29T10:24:09.546Z,3.40
2019-01-29T10:26:39.294Z,3.60
2019-01-29T10:29:09.008Z,3.80
2019-01-29T10:31:38.756Z,4.00
2019-01-29T10:34:08.527Z,4.30
2019-01-29T10:36:38.254Z,4.30
2019-01-29T10:39:10.566Z,4.10
2019-01-29T10:41:41.365Z,3.80
2019-01-29T10:44:11.067Z,3.30
2019-01-29T10:46:41.021Z,3.20
2019-01-29T10:49:10.604Z,3.10
2019-01-29T10:51:41.308Z,3.10
2019-01-29T10:54:10.962Z,2.90
2019-01-29T10:56:40.875Z,2.90
2019-01-29T10:59:12.141Z,2.90
2019-01-29T11:01:42.151Z,2.80
2019-01-29T11:04:12.527Z,3.00
2019-01-29T11:06:43.789Z,2.90
2019-01-29T11:09:13.834Z,2.90
2019-01-29T11:11:43.572Z,3.10
2019-01-29T11:14:13.507Z,3.20
2019-01-29T11:16:43.245Z,3.40
2019-01-29T11:19:13.264Z,3.60
2019-01-29T11:21:43.100Z,3.60
2019-01-29T11:24:13.775Z,3.70
2019-01-29T11:26:43.482Z,3.70
2019-01-29T11:29:13.293Z,3.80
2019-01-29T11:31:42.954Z,3.90
2019-01-29T11:34:12.780Z,3.60
2019-01-29T11:36:42.962Z,3.30
2019-01-29T11:39:12.669Z,3.30
2019-01-29T11:41:43.393Z,3.30
2019-01-29T11:44:13.121Z,3.40
2019-01-29T11:46:43.094Z,3.80
2019-01-29T11:49:13.938Z,3.90
2019-01-29T11:51:43.674Z,4.00
2019-01-29T11:54:13.416Z,4.00
2019-01-29T11:56:43.155Z,3.70
2019-01-29T11:59:12.861Z,3.90
2019-01-29T12:01:42.612Z,3.60
2019-01-29T12:04:12.289Z,3.10
2019-01-29T12:06:42.001Z,2.60
2019-01-29T12:09:11.717Z,2.50
2019-01-29T12:11:41.425Z,2.60
2019-01-29T12:14:11.161Z,2.60
2019-01-29T12:16:40.866Z,2.40
2019-01-29T12:19:10.785Z,2.50
2019-01-29T12:21:40.693Z,2.50
2019-01-29T12:24:11.297Z,2.60
2019-01-29T12:26:41.156Z,2.50
2019-01-29T12:29:10.880Z,2.50
2019-01-29T12:31:41.495Z,2.50
2019-01-29T12:34:11.243Z,2.50
2019-01-29T12:36:40.875Z,2.60
2019-01-29T12:39:10.541Z,2.70
2019-01-29T12:41:40.253Z,2.60
2019-01-29T12:44:09.923Z,2.80
2019-01-29T12:46:39.479Z,2.60
2019-01-29T12:49:09.300Z,2.50
2019-01-29T12:51:39.891Z,2.50
2019-01-29T12:54:09.772Z,2.60
2019-01-29T12:56:39.541Z,2.60
2019-01-29T12:59:09.358Z,2.40
2019-01-29T13:01:39.055Z,2.40
2019-01-29T13:04:08.698Z,2.40
2019-01-29T13:06:38.442Z,2.30
2019-01-29T13:09:09.022Z,2.10
2019-01-29T13:11:38.874Z,2.10
2019-01-29T13:14:08.603Z,2.10
2019-01-29T13:16:39.841Z,2.10
2019-01-29T13:19:10.551Z,2.10
2019-01-29T13:21:40.265Z,2.00
2019-01-29T13:24:10.084Z,2.10
2019-01-29T13:26:39.906Z,2.20
2019-01-29T13:29:09.642Z,2.20
2019-01-29T13:31:39.338Z,2.20
2019-01-29T13:34:09.023Z,2.30
2019-01-29T13:36:38.863Z,2.30
2019-01-29T13:39:08.599Z,2.40
2019-01-29T13:41:38.311Z,2.40
2019-01-29T13:44:08.885Z,2.10
2019-01-29T13:46:38.586Z,2.30
2019-01-29T13:49:08.188Z,2.20
2019-01-29T13:51:37.909Z,2.30
2019-01-29T13:54:08.525Z,2.10
2019-01-29T13:56:39.288Z,2.00
2019-01-29T13:59:09.007Z,2.00
2019-01-29T14:01:38.638Z,2.00
2019-01-29T14:04:08.443Z,2.00
2019-01-29T14:06:38.242Z,2.00
2019-01-29T14:09:08.525Z,2.00
2019-01-29T14:11:38.256Z,2.00
2019-01-29T14:14:08.039Z,1.90
2019-01-29T14:16:37.705Z,1.80
2019-01-29T14:19:07.435Z,1.80
2019-01-29T14:21:37.103Z,1.90
2019-01-29T14:24:06.816Z,1.90
2019-01-29T14:26:36.498Z,1.80
2019-01-29T14:29:06.215Z,1.80
2019-01-29T14:31:35.930Z,1.80
2019-01-29T14:34:06.057Z,1.80
2019-01-29T14:36:35.767Z,1.80
2019-01-29T14:39:11.341Z,1.80
2019-01-29T14:41:41.161Z,1.80
2019-01-29T14:44:11.600Z,1.80
2019-01-29T14:46:42.449Z,1.90
2019-01-29T14:49:12.188Z,1.70
2019-01-29T14:51:41.990Z,1.70
2019-01-29T14:54:12.073Z,1.80
2019-01-29T14:56:41.915Z,1.70
2019-01-29T14:59:12.617Z,1.70
2019-01-29T15:01:43.920Z,1.70
2019-01-29T15:04:13.851Z,1.60
2019-01-29T15:06:43.446Z,1.60
2019-01-29T15:09:13.321Z,1.70
2019-01-29T15:11:43.076Z,1.70
2019-01-29T15:14:13.750Z,1.70
2019-01-29T15:16:45.209Z,1.60
2019-01-29T15:19:14.871Z,1.60
2019-01-29T15:21:44.608Z,1.60
2019-01-29T15:24:14.213Z,1.60
2019-01-29T15:26:44.055Z,1.60
2019-01-29T15:29:13.950Z,1.50
2019-01-29T15:31:43.614Z,1.50
2019-01-29T15:34:13.316Z,1.40
2019-01-29T15:36:44.196Z,1.40
2019-01-29T15:39:14.029Z,1.30
2019-01-29T15:41:43.985Z,1.40
2019-01-29T15:44:13.757Z,1.30
2019-01-29T15:46:43.662Z,1.20
2019-01-29T15:49:13.418Z,1.20
2019-01-29T15:51:43.208Z,1.10
2019-01-29T15:54:12.972Z,1.10
2019-01-29T15:56:42.613Z,1.00
2019-01-29T15:59:13.391Z,1.00
2019-01-29T16:01:43.035Z,1.10
2019-01-29T16:04:12.752Z,1.10
2019-01-29T16:06:42.442Z,1.10
2019-01-29T16:09:12.320Z,1.00
2019-01-29T16:11:42.081Z,1.00
2019-01-29T16:14:11.938Z,0.90
2019-01-29T16:16:41.775Z,0.80
2019-01-29T16:19:11.503Z,0.80
2019-01-29T16:21:41.243Z,0.80
2019-01-29T16:24:10.883Z,0.70
2019-01-29T16:26:40.627Z,0.60
2019-01-29T16:29:10.383Z,0.60
2019-01-29T16:31:40.216Z,0.50
2019-01-29T16:34:09.987Z,0.40
2019-01-29T16:36:39.630Z,0.40
2019-01-29T16:39:09.653Z,0.30
2019-01-29T16:41:39.465Z,0.20
2019-01-29T16:44:09.161Z,0.10
2019-01-29T16:46:38.830Z,0.00
2019-01-29T16:49:08.534Z,-0.10
2019-01-29T16:51:42.273Z,-0.20
2019-01-29T16:54:10.593Z,-0.30
2019-01-29T16:56:40.265Z,-0.30
2019-01-29T16:59:10.029Z,-0.30
2019-01-29T17:01:39.844Z,-0.40
2019-01-29T17:04:09.856Z,-0.50
2019-01-29T17:06:39.583Z,-0.50
2019-01-29T17:09:09.554Z,-0.60
2019-01-29T17:11:39.364Z,-0.60
2019-01-29T17:14:08.986Z,-0.60
2019-01-29T17:16:41.509Z,-0.60
2019-01-29T17:19:11.332Z,-0.60
2019-01-29T17:21:42.047Z,-0.60
2019-01-29T17:24:11.676Z,-0.60
2019-01-29T17:26:41.453Z,-0.60
2019-01-29T17:29:11.185Z,-0.70
2019-01-29T17:31:41.015Z,-0.70
2019-01-29T17:34:10.697Z,-0.80
2019-01-29T17:36:40.549Z,-0.80
2019-01-29T17:39:10.500Z,-0.80
2019-01-29T17:41:40.308Z,-0.90
2019-01-29T17:44:10.583Z,-0.90
2019-01-29T17:46:40.315Z,-1.00
2019-01-29T17:49:10.029Z,-1.00
2019-01-29T17:51:39.758Z,-1.10
2019-01-29T17:54:09.439Z,-1.10
2019-01-29T17:56:39.275Z,-1.20
2019-01-29T17:59:08.935Z,-1.20
2019-01-29T18:01:38.878Z,-1.30
2019-01-29T18:04:08.638Z,-1.30
2019-01-29T18:06:38.370Z,-1.40
2019-01-29T18:09:09.400Z,-1.50
2019-01-29T18:11:39.158Z,-1.50
2019-01-29T18:14:08.844Z,-1.50
2019-01-29T18:16:38.617Z,-1.60
2019-01-29T18:19:08.237Z,-1.60
2019-01-29T18:21:37.993Z,-1.60
2019-01-29T18:24:07.767Z,-1.60
2019-01-29T18:26:37.546Z,-1.70
2019-01-29T18:29:07.304Z,-1.60
2019-01-29T18:31:37.047Z,-1.60
2019-01-29T18:34:06.803Z,-1.50
2019-01-29T18:36:36.645Z,-1.60
2019-01-29T18:39:07.595Z,-1.60
2019-01-29T18:41:37.194Z,-1.70
2019-01-29T18:44:07.526Z,-1.60
2019-01-29T18:46:37.326Z,-1.60
2019-01-29T18:49:07.076Z,-1.60
2019-01-29T18:51:36.940Z,-1.50
2019-01-29T18:54:08.165Z,-1.40
2019-01-29T18:56:38.011Z,-1.60
2019-01-29T18:59:08.663Z,-1.70
2019-01-29T19:01:38.419Z,-1.80
2019-01-29T19:04:09.090Z,-1.80
2019-01-29T19:06:40.658Z,-1.90
2019-01-29T19:09:10.471Z,-1.90
2019-01-29T19:11:40.219Z,-2.00
2019-01-29T19:14:09.929Z,-2.10
2019-01-29T19:16:39.664Z,-2.00
2019-01-29T19:19:09.355Z,-2.10
2019-01-29T19:21:39.093Z,-2.00
2019-01-29T19:24:09.057Z,-2.00
2019-01-29T19:26:38.803Z,-2.00
2019-01-29T19:29:08.542Z,-2.10
2019-01-29T19:31:38.289Z,-2.10
2019-01-29T19:34:08.065Z,-2.20
2019-01-29T19:36:37.811Z,-2.20
2019-01-29T19:39:09.360Z,-2.20
2019-01-29T19:41:39.558Z,-2.10
2019-01-29T19:44:09.236Z,-2.20
2019-01-29T19:46:39.011Z,-2.20
2019-01-29T19:49:08.770Z,-2.30
2019-01-29T19:51:38.524Z,-2.20
2019-01-29T19:54:08.338Z,-2.20
2019-01-29T19:56:38.182Z,-2.20
2019-01-29T19:59:07.910Z,-2.20
2019-01-29T20:01:37.602Z,-2.30
2019-01-29T20:04:07.376Z,-2.20
2019-01-29T20:06:37.072Z,-2.20
2019-01-29T20:09:09.887Z,-2.20
2019-01-29T20:11:39.587Z,-2.20
2019-01-29T20:14:09.349Z,-2.20
2019-01-29T20:16:39.101Z,-2.30
2019-01-29T20:19:08.847Z,-2.30
2019-01-29T20:21:38.536Z,-2.30
2019-01-29T20:24:09.256Z,-2.30
2019-01-29T20:26:38.961Z,-2.30
2019-01-29T20:29:08.857Z,-2.40
2019-01-29T20:31:39.642Z,-2.50
2019-01-29T20:34:09.306Z,-2.50
2019-01-29T20:36:40.503Z,-2.60
2019-01-29T20:39:10.344Z,-2.70
2019-01-29T20:41:40.910Z,-2.70
2019-01-29T20:44:10.754Z,-2.70
2019-01-29T20:46:40.350Z,-2.80
2019-01-29T20:49:10.099Z,-2.80
2019-01-29T20:51:39.863Z,-2.80
2019-01-29T20:54:09.663Z,-2.90
2019-01-29T20:56:39.395Z,-3.00
2019-01-29T20:59:09.215Z,-3.00
2019-01-29T21:01:39.060Z,-3.00
2019-01-29T21:04:09.291Z,-3.00
2019-01-29T21:06:40.006Z,-3.00
2019-01-29T21:09:09.922Z,-3.00
2019-01-29T21:11:40.543Z,-3.00
2019-01-29T21:14:10.231Z,-3.00
2019-01-29T21:16:39.929Z,-3.00
2019-01-29T21:19:09.663Z,-3.00
2019-01-29T21:21:39.351Z,-3.10
2019-01-29T21:24:09.102Z,-3.10
2019-01-29T21:26:38.782Z,-3.10
2019-01-29T21:29:08.552Z,-3.20
2019-01-29T21:31:38.550Z,-3.30
2019-01-29T21:34:08.235Z,-3.40
2019-01-29T21:36:38.034Z,-3.30
2019-01-29T21:39:08.701Z,-3.30
2019-01-29T21:41:39.466Z,-3.30
2019-01-29T21:44:09.143Z,-3.20
2019-01-29T21:46:38.885Z,-3.20
2019-01-29T21:49:08.563Z,-3.20
2019-01-29T21:51:38.291Z,-3.20
2019-01-29T21:54:08.128Z,-3.20
2019-01-29T21:56:37.925Z,-3.20
2019-01-29T21:59:13.441Z,-3.20
2019-01-29T22:01:39.256Z,-3.30
2019-01-29T22:04:08.868Z,-3.30
2019-01-29T22:06:38.503Z,-3.30
2019-01-29T22:09:08.908Z,-3.40
2019-01-29T22:11:38.782Z,-3.40
2019-01-29T22:14:08.552Z,-3.50
2019-01-29T22:16:38.298Z,-3.50
2019-01-29T22:19:08.946Z,-3.60
2019-01-29T22:21:38.630Z,-3.70
2019-01-29T22:24:08.366Z,-3.60
2019-01-29T22:26:38.154Z,-3.70
2019-01-29T22:29:07.885Z,-3.60
2019-01-29T22:31:38.497Z,-3.60
2019-01-29T22:34:08.240Z,-3.70
2019-01-29T22:36:39.018Z,-3.80
2019-01-29T22:39:09.165Z,-3.80
2019-01-29T22:41:39.297Z,-3.70
2019-01-29T22:44:08.972Z,-3.70
2019-01-29T22:46:38.858Z,-3.70
2019-01-29T22:49:08.800Z,-3.60
2019-01-29T22:51:38.559Z,-3.60
2019-01-29T22:54:08.355Z,-3.60
2019-01-29T22:56:38.066Z,-3.50
2019-01-29T22:59:07.983Z,-3.50
2019-01-29T23:01:38.314Z,-3.40
2019-01-29T23:04:09.095Z,-3.40
2019-01-29T23:06:50.581Z,-3.40
2019-01-29T23:09:20.321Z,-3.30
2019-01-29T23:11:50.446Z,-3.20
2019-01-29T23:14:20.261Z,-3.20
2019-01-29T23:16:50.227Z,-3.30
2019-01-29T23:19:20.098Z,-3.20
2019-01-29T23:21:49.835Z,-3.20
2019-01-29T23:24:19.456Z,-3.10
2019-01-29T23:26:49.188Z,-3.10
2019-01-29T23:29:18.938Z,-3.00
2019-01-29T23:31:48.695Z,-3.00
2019-01-29T23:34:18.463Z,-3.00
2019-01-29T23:36:48.180Z,-2.90
2019-01-29T23:39:17.854Z,-2.90
2019-01-29T23:41:47.565Z,-2.90
2019-01-29T23:44:17.500Z,-2.90
2019-01-29T23:46:47.282Z,-2.90
2019-01-29T23:49:16.972Z,-2.80
2019-01-29T23:51:46.746Z,-2.70
2019-01-29T23:54:17.471Z,-2.60
2019-01-29T23:56:47.233Z,-2.60
2019-01-29T23:59:17.010Z,-2.50
